Time;durP1;ratioP1;P1;durP2;ratioP2;P2;SDS_P1;SDS_P2;PMS_P1;PMS_P2;Temp;Humidity;BMP_temperature;BMP_pressure;BME280_temperature;BME280_humidity;BME280_pressure;Samples;Min_cycle;Max_cycle;Signal;HPM_P1;HPM_P2
2022/06/15 00:02:02;;;;;;;10.40;10.10;;;16.00;99.90;;;;;;5103866;28;20233;-83
2022/06/15 00:04:31;;;;;;;10.70;10.40;;;16.00;99.90;;;;;;5104435;28;20259;-83
2022/06/15 00:06:59;;;;;;;10.40;10.10;;;15.90;99.90;;;;;;5103759;28;20241;-83
2022/06/15 00:09:28;;;;;;;10.63;10.32;;;15.90;99.90;;;;;;5104014;28;20260;-84
2022/06/15 00:11:58;;;;;;;10.50;10.20;;;15.90;99.90;;;;;;5103500;28;20233;-83
2022/06/15 00:14:36;;;;;;;10.70;10.40;;;15.90;99.90;;;;;;5104344;28;20287;-83
2022/06/15 00:17:06;;;;;;;10.48;10.18;;;15.80;99.90;;;;;;5103427;28;20237;-83
2022/06/15 00:19:35;;;;;;;10.48;10.18;;;15.80;99.90;;;;;;5103246;28;20217;-83
2022/06/15 00:22:07;;;;;;;10.40;10.10;;;15.80;99.90;;;;;;5104016;28;20786;-82
2022/06/15 00:24:37;;;;;;;10.40;10.10;;;15.70;99.90;;;;;;5104307;28;20240;-83
2022/06/15 00:27:05;;;;;;;10.23;9.93;;;15.70;99.90;;;;;;5104054;28;20261;-83
2022/06/15 00:32:22;;;;;;;10.23;9.93;;;15.60;99.90;;;;;;5103118;28;20307;-83
2022/06/15 00:34:51;;;;;;;10.20;9.90;;;15.60;99.90;;;;;;5104547;28;20229;-83
2022/06/15 00:37:21;;;;;;;10.20;9.90;;;15.50;99.90;;;;;;5104584;28;20222;-81
2022/06/15 00:39:50;;;;;;;10.20;9.90;;;15.50;99.90;;;;;;5117886;28;20217;-82
2022/06/15 00:42:19;;;;;;;10.40;10.10;;;15.50;99.90;;;;;;5118332;27;20205;-81
2022/06/15 00:45:01;;;;;;;10.10;9.80;;;15.50;99.90;;;;;;5118394;28;20236;-84
2022/06/15 00:47:36;;;;;;;10.07;9.77;;;15.40;99.90;;;;;;5114930;28;20227;-83
2022/06/15 00:50:08;;;;;;;10.10;9.80;;;15.30;99.90;;;;;;5106815;28;20241;-83
2022/06/15 00:52:43;;;;;;;10.38;10.07;;;15.20;99.90;;;;;;5109038;28;20305;-83
2022/06/15 00:55:23;;;;;;;10.20;9.90;;;15.20;99.90;;;;;;5108655;28;20284;-83
2022/06/15 00:57:51;;;;;;;10.30;10.00;;;15.20;99.90;;;;;;5108011;28;20296;-84
2022/06/15 01:03:10;;;;;;;10.50;10.20;;;15.10;99.90;;;;;;5107553;28;20293;-84
2022/06/15 01:05:48;;;;;;;10.27;9.98;;;15.00;99.90;;;;;;5107820;28;20267;-83
2022/06/15 01:08:34;;;;;;;10.68;10.38;;;15.00;99.90;;;;;;5107557;28;20260;-84
2022/06/15 01:11:23;;;;;;;10.50;10.20;;;14.90;99.90;;;;;;5107448;28;20288;-83
2022/06/15 01:14:33;;;;;;;10.40;10.10;;;14.80;99.90;;;;;;5106992;28;20237;-84
2022/06/15 01:17:20;;;;;;;10.10;9.80;;;14.80;99.90;;;;;;5107555;28;20310;-83
2022/06/15 01:20:28;;;;;;;10.45;10.15;;;14.80;99.90;;;;;;5106127;28;20257;-84
2022/06/15 01:23:48;;;;;;;10.35;10.05;;;14.70;99.90;;;;;;5093329;28;21071;-84
2022/06/15 01:27:02;;;;;;;10.52;10.23;;;14.70;99.90;;;;;;5104460;28;20245;-83
2022/06/15 01:30:08;;;;;;;10.27;9.98;;;14.70;99.90;;;;;;5091210;28;20291;-84
2022/06/15 01:32:43;;;;;;;10.30;10.00;;;14.60;99.90;;;;;;5107252;28;20251;-83
2022/06/15 01:35:21;;;;;;;10.63;10.32;;;14.60;99.90;;;;;;5107191;28;20221;-84
2022/06/15 01:38:00;;;;;;;10.13;9.82;;;14.60;99.90;;;;;;5107268;28;20228;-84
2022/06/15 01:40:39;;;;;;;10.40;10.10;;;14.60;99.90;;;;;;5107098;28;20260;-84
2022/06/15 01:43:16;;;;;;;10.13;9.82;;;14.50;99.90;;;;;;5106804;28;20234;-85
2022/06/15 01:45:55;;;;;;;10.25;9.95;;;14.50;99.90;;;;;;5106531;28;20275;-84
2022/06/15 01:48:24;;;;;;;10.23;9.93;;;14.50;99.90;;;;;;5117028;28;20281;-85
2022/06/15 01:53:49;;;;;;;10.20;9.90;;;14.40;99.90;;;;;;5118382;28;20525;-84
2022/06/15 01:56:21;;;;;;;10.40;10.10;;;14.30;99.90;;;;;;5117431;28;20293;-84
2022/06/15 01:58:57;;;;;;;10.00;9.70;;;14.30;99.90;;;;;;5120280;28;20271;-84
2022/06/15 02:01:47;;;;;;;10.10;9.80;;;14.30;99.90;;;;;;5111411;28;20237;-84
2022/06/15 02:04:31;;;;;;;10.10;9.80;;;14.20;99.90;;;;;;5109787;28;20221;-84
2022/06/15 02:07:18;;;;;;;10.35;10.05;;;14.20;99.90;;;;;;5108679;28;20214;-84
2022/06/15 02:09:58;;;;;;;10.30;10.00;;;14.10;99.90;;;;;;5108787;28;20236;-84
2022/06/15 02:12:44;;;;;;;10.60;10.30;;;14.10;99.90;;;;;;5107996;28;20276;-84
2022/06/15 02:15:16;;;;;;;10.50;10.20;;;14.10;99.90;;;;;;5107817;28;20244;-84
2022/06/15 02:17:52;;;;;;;10.40;10.10;;;14.00;99.90;;;;;;5109519;28;20275;-85
2022/06/15 02:20:32;;;;;;;10.68;10.38;;;14.00;99.90;;;;;;5106849;28;20267;-85
2022/06/15 02:23:12;;;;;;;10.63;10.32;;;14.00;99.90;;;;;;5105873;28;20295;-85
2022/06/15 02:25:49;;;;;;;10.53;10.23;;;13.90;99.90;;;;;;5105430;28;20233;-84
2022/06/15 02:28:18;;;;;;;10.40;10.10;;;13.90;99.90;;;;;;5105084;28;20284;-84
2022/06/15 02:30:47;;;;;;;10.23;9.93;;;13.80;99.90;;;;;;5104934;28;20233;-84
2022/06/15 02:33:27;;;;;;;10.20;9.90;;;13.80;99.90;;;;;;5105323;28;20372;-84
2022/06/15 02:35:56;;;;;;;10.30;10.00;;;13.70;99.90;;;;;;5105853;28;20253;-84
2022/06/15 02:38:24;;;;;;;10.27;9.97;;;13.70;99.90;;;;;;5105750;28;20215;-84
2022/06/15 02:40:53;;;;;;;10.47;10.17;;;13.60;99.90;;;;;;5105364;28;20260;-84
2022/06/15 02:43:24;;;;;;;10.70;10.40;;;13.60;99.90;;;;;;5106708;28;20226;-84
2022/06/15 02:45:53;;;;;;;10.80;10.50;;;13.50;99.90;;;;;;5106016;28;20225;-84
2022/06/15 02:48:24;;;;;;;10.73;10.43;;;13.50;99.90;;;;;;5104580;28;20316;-84
2022/06/15 02:50:59;;;;;;;10.93;10.63;;;13.40;99.90;;;;;;5105441;28;20271;-84
2022/06/15 02:53:31;;;;;;;11.00;10.70;;;13.40;99.90;;;;;;5104860;28;20320;-84
2022/06/15 02:56:00;;;;;;;10.87;10.57;;;13.30;99.90;;;;;;5104358;28;20217;-84
2022/06/15 02:58:31;;;;;;;11.57;11.17;;;13.30;99.90;;;;;;5105552;28;20283;-84
2022/06/15 03:01:00;;;;;;;11.07;10.77;;;13.20;99.90;;;;;;5104881;28;20248;-83
2022/06/15 03:06:14;;;;;;;11.03;10.73;;;13.20;99.90;;;;;;5104295;28;20260;-83
2022/06/15 03:08:43;;;;;;;11.30;10.90;;;13.10;99.90;;;;;;5104939;28;20222;-84
2022/06/15 03:11:12;;;;;;;11.20;10.90;;;13.10;99.90;;;;;;5105093;28;20312;-84
2022/06/15 03:13:42;;;;;;;10.60;10.30;;;13.10;99.90;;;;;;5104322;28;20260;-84
2022/06/15 03:16:11;;;;;;;11.00;10.70;;;13.10;99.90;;;;;;5105064;28;20225;-83
2022/06/15 03:18:49;;;;;;;11.03;10.73;;;13.00;99.90;;;;;;5104607;28;20257;-83
2022/06/15 03:21:19;;;;;;;10.77;10.47;;;12.90;99.90;;;;;;5104468;28;20264;-83
2022/06/15 03:23:48;;;;;;;10.80;10.50;;;12.90;99.90;;;;;;5104940;28;20225;-83
2022/06/15 03:26:17;;;;;;;11.00;10.70;;;12.90;99.90;;;;;;5106081;28;20240;-84
2022/06/15 03:28:47;;;;;;;10.83;10.53;;;12.80;99.90;;;;;;5106305;28;20234;-84
2022/06/15 03:31:16;;;;;;;11.00;10.70;;;12.70;99.90;;;;;;5105515;28;20229;-83
2022/06/15 03:36:34;;;;;;;10.90;10.60;;;12.70;99.90;;;;;;5103752;28;20229;-83
2022/06/15 03:39:03;;;;;;;10.70;10.40;;;12.70;99.90;;;;;;5104041;28;20217;-84
2022/06/15 03:41:33;;;;;;;10.80;10.50;;;12.70;99.90;;;;;;5103529;28;20297;-84
2022/06/15 03:44:02;;;;;;;10.70;10.40;;;12.60;99.90;;;;;;5104455;28;20287;-84
2022/06/15 03:46:31;;;;;;;10.83;10.53;;;12.70;99.90;;;;;;5102736;28;20224;-84
2022/06/15 03:49:09;;;;;;;10.77;10.47;;;12.70;99.90;;;;;;5109978;28;20205;-83
2022/06/15 03:51:38;;;;;;;10.87;10.57;;;12.70;99.90;;;;;;5118145;28;20233;-83
2022/06/15 03:54:08;;;;;;;11.10;10.80;;;12.70;99.90;;;;;;5115690;28;20257;-83
2022/06/15 03:56:46;;;;;;;10.97;10.67;;;12.70;99.90;;;;;;5115638;28;20226;-84
2022/06/15 03:59:15;;;;;;;10.80;10.50;;;12.80;99.90;;;;;;5116098;28;20213;-84
2022/06/15 04:01:45;;;;;;;10.97;10.67;;;12.80;99.90;;;;;;5116233;28;20229;-84
2022/06/15 04:07:01;;;;;;;11.40;11.00;;;12.90;99.90;;;;;;5117064;28;20225;-83
2022/06/15 04:09:28;;;;;;;11.57;11.17;;;12.90;99.90;;;;;;5118708;28;20229;-84
2022/06/15 04:12:02;;;;;;;10.80;10.50;;;12.90;99.90;;;;;;5118505;28;20216;-83
2022/06/15 04:14:30;;;;;;;10.83;10.53;;;13.00;99.90;;;;;;5117782;28;20233;-83
2022/06/15 04:17:00;;;;;;;10.97;10.67;;;13.00;99.90;;;;;;5109370;28;20285;-83
2022/06/15 04:19:38;;;;;;;11.10;10.80;;;13.00;99.90;;;;;;5105219;28;20222;-83
2022/06/15 04:22:10;;;;;;;11.30;10.90;;;13.10;99.90;;;;;;5105577;28;20228;-83
2022/06/15 04:24:39;;;;;;;11.03;10.73;;;13.20;99.90;;;;;;5108234;28;20237;-84
2022/06/15 04:27:08;;;;;;;11.03;10.73;;;13.20;99.90;;;;;;5105128;28;20222;-83
2022/06/15 04:29:37;;;;;;;11.40;11.00;;;13.20;99.90;;;;;;5102256;28;20724;-83
2022/06/15 04:32:08;;;;;;;10.97;10.67;;;13.30;99.90;;;;;;5103714;28;20229;-82
2022/06/15 04:34:39;;;;;;;10.83;10.53;;;13.40;99.90;;;;;;5104074;28;20244;-84
2022/06/15 04:37:06;;;;;;;11.00;10.70;;;13.40;99.90;;;;;;5104057;28;20317;-84
2022/06/15 04:39:36;;;;;;;10.77;10.47;;;13.50;99.90;;;;;;5103507;28;20241;-84
2022/06/15 04:42:05;;;;;;;10.80;10.50;;;13.50;99.90;;;;;;5102867;28;20325;-84
2022/06/15 04:44:34;;;;;;;10.83;10.53;;;13.60;99.90;;;;;;5102144;28;20256;-84
2022/06/15 04:47:03;;;;;;;11.00;10.70;;;13.70;99.90;;;;;;5102935;28;20237;-83
2022/06/15 04:49:32;;;;;;;11.10;10.80;;;13.80;99.90;;;;;;5102788;28;20225;-83
2022/06/15 04:52:12;;;;;;;11.17;10.80;;;13.80;99.90;;;;;;5106254;28;20301;-84
2022/06/15 04:54:41;;;;;;;10.90;10.60;;;13.90;99.90;;;;;;5116896;28;20242;-82
2022/06/15 04:57:10;;;;;;;11.00;10.70;;;14.00;99.90;;;;;;5116625;28;20324;-83
2022/06/15 04:59:39;;;;;;;11.07;10.77;;;14.10;99.90;;;;;;5111526;28;20233;-84
2022/06/15 05:02:09;;;;;;;10.90;10.60;;;14.20;99.90;;;;;;5105175;28;20225;-84
2022/06/15 05:04:38;;;;;;;10.88;10.57;;;14.30;99.90;;;;;;5108814;28;20253;-84
2022/06/15 05:07:17;;;;;;;11.07;10.77;;;14.40;99.90;;;;;;5107897;28;20221;-84
2022/06/15 05:09:47;;;;;;;10.93;10.63;;;14.60;99.90;;;;;;5106632;28;20232;-84
2022/06/15 05:12:15;;;;;;;10.90;10.60;;;14.70;99.90;;;;;;5105532;28;20261;-84
2022/06/15 05:14:47;;;;;;;10.90;10.60;;;14.90;99.90;;;;;;5104452;28;20229;-85
2022/06/15 05:17:15;;;;;;;10.90;10.60;;;15.00;99.90;;;;;;5104253;28;20221;-83
2022/06/15 05:19:43;;;;;;;10.90;10.60;;;15.20;99.90;;;;;;5128951;22;20222;-81
2022/06/15 05:22:13;;;;;;;10.90;10.60;;;15.30;99.90;;;;;;5114403;28;20237;-81
2022/06/15 05:24:41;;;;;;;11.40;11.00;;;15.50;99.90;;;;;;5121155;28;20232;-81
2022/06/15 05:27:10;;;;;;;11.05;10.75;;;15.70;99.90;;;;;;5123874;28;20228;-82
2022/06/15 05:29:38;;;;;;;11.00;10.70;;;15.80;99.90;;;;;;5135548;28;20215;-82
2022/06/15 05:32:08;;;;;;;11.57;11.18;;;16.00;99.90;;;;;;5101510;28;20240;-81
2022/06/15 05:34:36;;;;;;;11.45;11.05;;;16.20;99.90;;;;;;5091470;28;20293;-81
2022/06/15 05:37:04;;;;;;;11.18;10.88;;;16.30;99.90;;;;;;5100395;28;20277;-81
2022/06/15 05:39:34;;;;;;;11.57;11.18;;;16.40;99.90;;;;;;5103759;28;20235;-84
2022/06/15 05:42:03;;;;;;;11.40;11.00;;;16.50;99.90;;;;;;5105552;28;20292;-84
2022/06/15 05:44:37;;;;;;;11.52;11.13;;;16.60;99.90;;;;;;5108361;28;20229;-84
2022/06/15 05:47:07;;;;;;;11.07;10.77;;;16.70;99.90;;;;;;5104942;28;20235;-84
2022/06/15 05:49:37;;;;;;;11.20;10.90;;;16.90;99.90;;;;;;5103981;28;20226;-84
2022/06/15 05:52:07;;;;;;;11.18;10.88;;;17.00;99.90;;;;;;5103699;28;20236;-83
2022/06/15 05:54:36;;;;;;;11.02;10.73;;;17.20;99.90;;;;;;5103469;28;20264;-82
2022/06/15 05:57:15;;;;;;;10.93;10.63;;;17.30;99.90;;;;;;5102120;28;20258;-82
2022/06/15 05:59:43;;;;;;;11.50;11.10;;;17.40;99.90;;;;;;5102369;28;20260;-82
2022/06/15 06:02:12;;;;;;;11.20;10.90;;;17.60;99.90;;;;;;5102756;28;20237;-81
2022/06/15 06:04:40;;;;;;;11.05;10.75;;;17.70;99.90;;;;;;5102803;28;20233;-83
2022/06/15 06:07:13;;;;;;;11.50;11.10;;;17.80;99.90;;;;;;5102408;28;20225;-83
2022/06/15 06:09:42;;;;;;;11.75;11.35;;;17.90;99.90;;;;;;5102392;28;20214;-84
2022/06/15 06:12:11;;;;;;;11.55;11.15;;;18.10;99.90;;;;;;5104647;28;20222;-83
2022/06/15 06:14:39;;;;;;;11.70;11.30;;;18.20;99.90;;;;;;5103075;28;20259;-83
2022/06/15 06:17:07;;;;;;;11.90;11.50;;;18.40;99.90;;;;;;5101777;28;20275;-83
2022/06/15 06:19:37;;;;;;;11.77;11.38;;;18.50;99.90;;;;;;5103586;28;20258;-82
2022/06/15 06:22:05;;;;;;;11.57;11.18;;;18.70;99.90;;;;;;5102794;28;20259;-80
2022/06/15 06:24:32;;;;;;;11.18;10.88;;;18.80;99.90;;;;;;5098900;28;20285;-84
2022/06/15 06:27:07;;;;;;;11.35;10.98;;;18.90;99.90;;;;;;5102142;28;20312;-83
2022/06/15 06:29:36;;;;;;;11.55;11.15;;;19.00;99.90;;;;;;5102295;28;20221;-84
2022/06/15 06:32:05;;;;;;;11.50;11.10;;;19.10;99.90;;;;;;5099751;28;20233;-83
2022/06/15 06:34:34;;;;;;;11.32;10.98;;;19.20;99.90;;;;;;5100374;28;20244;-83
2022/06/15 06:37:05;;;;;;;11.75;11.35;;;19.30;99.90;;;;;;5101248;28;20225;-83
2022/06/15 06:39:33;;;;;;;11.60;11.20;;;19.40;99.90;;;;;;5101411;28;20230;-84
2022/06/15 06:42:05;;;;;;;11.63;11.23;;;19.50;99.90;;;;;;5103103;28;20317;-83
2022/06/15 06:44:34;;;;;;;11.75;11.35;;;19.70;99.90;;;;;;5101289;28;20229;-83
2022/06/15 06:47:03;;;;;;;11.90;11.50;;;19.80;99.90;;;;;;5101087;28;20419;-83
2022/06/15 06:49:32;;;;;;;11.52;11.13;;;19.90;99.90;;;;;;5099983;28;20320;-84
2022/06/15 06:52:03;;;;;;;11.27;10.98;;;20.10;99.90;;;;;;5092048;28;20322;-84
2022/06/15 06:54:32;;;;;;;11.48;11.07;;;20.20;99.90;;;;;;5101571;28;20268;-83
2022/06/15 06:57:02;;;;;;;11.02;10.73;;;20.30;99.90;;;;;;5100553;28;20221;-83
2022/06/15 06:59:31;;;;;;;11.00;10.70;;;20.40;99.90;;;;;;5101203;28;20261;-82
2022/06/15 07:02:00;;;;;;;11.15;10.85;;;20.50;99.90;;;;;;5102764;28;20240;-84
2022/06/15 07:04:27;;;;;;;10.48;10.18;;;20.60;99.90;;;;;;5101293;28;20230;-83
2022/06/15 07:06:59;;;;;;;10.68;10.38;;;20.80;99.90;;;;;;5100225;28;20383;-82
2022/06/15 07:09:27;;;;;;;10.68;10.38;;;20.90;99.90;;;;;;5100576;28;20221;-83
2022/06/15 07:11:55;;;;;;;10.55;10.25;;;21.10;99.90;;;;;;5101245;28;20241;-84
2022/06/15 07:14:23;;;;;;;10.77;10.48;;;21.20;99.90;;;;;;5100889;28;20240;-83
2022/06/15 07:16:52;;;;;;;10.70;10.40;;;21.30;99.90;;;;;;5100188;28;20237;-83
2022/06/15 07:19:20;;;;;;;10.60;10.30;;;21.40;99.90;;;;;;5100274;28;20260;-84
2022/06/15 07:21:47;;;;;;;10.80;10.50;;;21.50;99.90;;;;;;5101013;28;20236;-85
2022/06/15 07:24:15;;;;;;;10.45;10.15;;;21.50;99.90;;;;;;5099651;28;20712;-82
2022/06/15 07:26:47;;;;;;;10.90;10.60;;;21.60;99.90;;;;;;5099568;28;20228;-83
2022/06/15 07:29:33;;;;;;;10.88;10.57;;;21.70;99.90;;;;;;5101278;28;20732;-83
2022/06/15 07:32:10;;;;;;;11.05;10.75;;;21.80;99.90;;;;;;5083061;28;20768;-86
2022/06/15 07:34:37;;;;;;;10.80;10.50;;;21.90;99.90;;;;;;5080651;28;20225;-83
2022/06/15 07:37:05;;;;;;;10.80;10.50;;;21.90;99.90;;;;;;5079637;28;20230;-84
2022/06/15 07:39:33;;;;;;;10.85;10.55;;;22.00;99.90;;;;;;5080392;28;20226;-84
2022/06/15 07:42:01;;;;;;;11.00;10.70;;;22.10;99.90;;;;;;5079654;28;20244;-84
2022/06/15 07:44:29;;;;;;;10.30;10.00;;;22.20;99.90;;;;;;5079305;28;20311;-82
2022/06/15 07:49:58;;;;;;;10.68;10.38;;;22.60;99.90;;;;;;5079016;28;20214;-83
2022/06/15 07:52:31;;;;;;;10.40;10.10;;;22.60;99.90;;;;;;5080186;28;20222;-82
2022/06/15 07:55:00;;;;;;;10.40;10.10;;;22.60;99.90;;;;;;5079129;28;20265;-82
2022/06/15 07:57:28;;;;;;;10.20;9.90;;;22.60;99.90;;;;;;5079771;28;20284;-83
2022/06/15 07:59:55;;;;;;;10.27;9.98;;;22.70;99.90;;;;;;5079545;28;20257;-83
2022/06/15 08:02:23;;;;;;;10.15;9.85;;;22.70;99.90;;;;;;5092218;28;20294;-84
2022/06/15 08:04:54;;;;;;;10.63;10.32;;;22.80;99.90;;;;;;5097607;28;20226;-84
2022/06/15 08:07:22;;;;;;;10.60;10.30;;;22.90;99.90;;;;;;5096607;28;20226;-83
2022/06/15 08:09:51;;;;;;;10.43;10.13;;;23.00;99.90;;;;;;5097689;28;20226;-83
2022/06/15 08:12:23;;;;;;;10.80;10.50;;;23.10;99.90;;;;;;5097030;28;20244;-84
2022/06/15 08:14:53;;;;;;;10.90;10.60;;;23.30;99.90;;;;;;5082004;28;20271;-83
2022/06/15 08:17:26;;;;;;;10.43;10.13;;;23.50;99.90;;;;;;5094061;28;20264;-82
2022/06/15 08:20:05;;;;;;;10.40;10.10;;;23.70;99.90;;;;;;5100662;28;20214;-82
2022/06/15 08:22:34;;;;;;;10.35;10.05;;;23.80;99.90;;;;;;5101431;28;20286;-83
2022/06/15 08:25:03;;;;;;;10.52;10.23;;;23.90;99.90;;;;;;5099592;28;20320;-84
2022/06/15 08:27:31;;;;;;;10.50;10.20;;;23.90;99.90;;;;;;5100028;28;20236;-83
2022/06/15 08:29:59;;;;;;;10.48;10.18;;;24.00;99.90;;;;;;5099725;28;20265;-80
2022/06/15 08:32:27;;;;;;;10.27;9.98;;;24.10;99.90;;;;;;5098925;28;20249;-82
2022/06/15 08:34:56;;;;;;;11.05;10.75;;;24.20;99.90;;;;;;5100098;28;20329;-82
2022/06/15 08:37:24;;;;;;;11.20;10.90;;;24.40;99.90;;;;;;5099123;28;20303;-81
2022/06/15 08:39:54;;;;;;;11.25;10.95;;;24.60;99.90;;;;;;5099888;28;20229;-82
2022/06/15 08:42:32;;;;;;;11.07;10.77;;;24.70;99.90;;;;;;5103005;28;20229;-83
2022/06/15 08:45:11;;;;;;;11.05;10.75;;;24.90;99.90;;;;;;5106001;28;20320;-82
2022/06/15 08:48:20;;;;;;;12.13;11.73;;;25.00;99.90;;;;;;5108899;28;20232;-81
2022/06/15 08:50:57;;;;;;;11.48;11.13;;;25.10;99.90;;;;;;5101832;28;20237;-81
2022/06/15 08:53:35;;;;;;;11.63;11.23;;;25.30;99.90;;;;;;5096430;28;20244;-81
2022/06/15 08:56:10;;;;;;;11.50;11.10;;;25.30;99.90;;;;;;5100284;28;20295;-81
2022/06/15 08:58:47;;;;;;;11.27;10.98;;;25.30;99.90;;;;;;5100227;28;20314;-82
2022/06/15 09:01:27;;;;;;;11.30;11.00;;;25.60;99.90;;;;;;5100102;28;20229;-80
2022/06/15 09:04:07;;;;;;;11.23;10.93;;;26.00;99.90;;;;;;5101547;28;20243;-81
2022/06/15 09:06:52;;;;;;;11.27;10.98;;;26.10;99.90;;;;;;5078435;28;20249;-81
2022/06/15 09:09:45;;;;;;;10.88;10.57;;;26.20;99.90;;;;;;5080981;28;20254;-82
2022/06/15 09:15:29;;;;;;;10.95;10.65;;;26.40;99.90;;;;;;5097418;28;20265;-80
2022/06/15 09:18:03;;;;;;;10.98;10.68;;;26.60;99.90;;;;;;5090037;28;20258;-80
2022/06/15 09:20:36;;;;;;;11.00;10.70;;;26.70;99.90;;;;;;5082535;28;20237;-80
2022/06/15 09:23:12;;;;;;;11.02;10.73;;;26.70;99.90;;;;;;5084003;28;20232;-80
2022/06/15 09:25:46;;;;;;;11.70;11.30;;;27.00;99.90;;;;;;5102634;28;20225;-80
2022/06/15 09:28:25;;;;;;;11.30;11.00;;;27.20;99.90;;;;;;5083235;28;20226;-80
2022/06/15 09:30:54;;;;;;;11.60;11.20;;;27.20;99.90;;;;;;5082122;28;21116;-80
2022/06/15 09:33:29;;;;;;;11.38;11.07;;;27.40;99.90;;;;;;5082497;28;20317;-81
2022/06/15 09:36:02;;;;;;;10.80;10.50;;;27.60;99.90;;;;;;5092247;28;20236;-81
2022/06/15 09:38:34;;;;;;;10.85;10.55;;;27.70;99.90;;;;;;5101177;28;20233;-81
2022/06/15 09:41:09;;;;;;;11.43;11.13;;;28.00;99.90;;;;;;5091666;28;20234;-81
2022/06/15 09:43:46;;;;;;;11.70;11.30;;;28.30;99.90;;;;;;5096892;28;20213;-81
2022/06/15 09:46:24;;;;;;;11.77;11.38;;;28.20;99.90;;;;;;5106599;28;20768;-83
2022/06/15 09:49:06;;;;;;;11.70;11.30;;;28.30;99.90;;;;;;5106547;28;20233;-81
2022/06/15 09:51:48;;;;;;;11.65;11.25;;;28.40;99.90;;;;;;5109052;28;20226;-82
2022/06/15 09:54:44;;;;;;;11.68;11.27;;;28.60;99.90;;;;;;5105131;28;20218;-82
2022/06/15 09:57:13;;;;;;;11.63;11.23;;;28.60;99.90;;;;;;5103946;28;20234;-81
2022/06/15 09:59:42;;;;;;;11.80;11.40;;;28.50;99.90;;;;;;5104137;28;20295;-82
2022/06/15 10:02:20;;;;;;;11.77;11.38;;;28.80;99.90;;;;;;5102969;28;20248;-82
2022/06/15 10:04:48;;;;;;;11.80;11.40;;;29.10;99.90;;;;;;5103405;28;20281;-81
2022/06/15 10:07:28;;;;;;;11.73;11.32;;;29.40;99.90;;;;;;5104533;28;20229;-82
2022/06/15 10:10:03;;;;;;;11.35;11.05;;;29.60;99.90;;;;;;5103907;28;20728;-82
2022/06/15 10:15:53;;;;;;;11.20;10.90;;;30.00;99.90;;;;;;5088655;28;20232;-81
2022/06/15 10:18:34;;;;;;;11.50;11.20;;;30.00;99.90;;;;;;5094483;28;20297;-81
2022/06/15 10:21:09;;;;;;;11.60;11.23;;;30.00;99.90;;;;;;5086235;28;20237;-81
2022/06/15 10:23:50;;;;;;;11.27;10.98;;;29.90;99.90;;;;;;5084919;28;20222;-82
2022/06/15 10:26:39;;;;;;;11.60;11.30;;;30.00;99.90;;;;;;5094727;28;20236;-84
2022/06/15 10:29:27;;;;;;;11.35;11.05;;;30.20;99.90;;;;;;5104554;28;20226;-90
2022/06/15 10:32:20;;;;;;;11.25;10.95;;;30.30;99.90;;;;;;5104961;28;20225;-87
2022/06/15 10:34:57;;;;;;;11.32;11.02;;;30.50;99.90;;;;;;5108999;28;20302;-88
2022/06/15 10:37:36;;;;;;;11.57;11.27;;;30.70;99.90;;;;;;5120816;27;20212;-86
2022/06/15 10:40:22;;;;;;;11.40;11.10;;;30.50;99.90;;;;;;5116331;28;20291;-85
2022/06/15 10:43:02;;;;;;;11.30;11.00;;;30.50;99.90;;;;;;5120939;28;20225;-87
2022/06/15 10:51:07;;;;;;;11.40;11.10;;;30.80;99.90;;;;;;5121340;27;20246;-87
2022/06/15 10:53:43;;;;;;;11.40;11.10;;;31.30;99.90;;;;;;5121654;27;20298;-87
2022/06/15 11:02:24;;;;;;;11.35;11.05;;;31.40;99.90;;;;;;5117156;27;20222;-89
2022/06/15 11:05:00;;;;;;;11.23;10.93;;;31.40;99.90;;;;;;5119658;27;20234;-89
2022/06/15 11:10:35;;;;;;;11.60;11.23;;;31.40;99.90;;;;;;5103921;28;20256;-90
2022/06/15 11:13:21;;;;;;;11.40;11.10;;;31.60;99.90;;;;;;5109388;28;20317;-88
2022/06/15 11:18:47;;;;;;;11.27;10.98;;;31.60;99.90;;;;;;5101172;28;20210;-89
2022/06/15 11:21:20;;;;;;;11.18;10.88;;;32.00;99.90;;;;;;5140320;22;20290;-83
2022/06/15 11:27:03;;;;;;;11.00;10.70;;;32.20;99.90;;;;;;5143849;27;20322;-84
2022/06/15 11:29:59;;;;;;;11.63;11.23;;;31.90;99.90;;;;;;5140429;27;20233;-80
2022/06/15 11:33:10;;;;;;;11.27;10.98;;;32.00;99.90;;;;;;5122994;28;20224;-81
2022/06/15 11:35:48;;;;;;;11.40;11.10;;;32.30;99.90;;;;;;5121858;27;20274;-81
2022/06/15 11:38:42;;;;;;;11.35;11.05;;;32.20;99.90;;;;;;5123859;27;20236;-82
2022/06/15 11:41:29;;;;;;;11.02;10.73;;;32.40;99.90;;;;;;5122092;27;20235;-82
2022/06/15 11:44:25;;;;;;;10.63;10.32;;;32.80;99.90;;;;;;5122632;28;20279;-82
2022/06/15 11:47:27;;;;;;;10.65;10.35;;;33.00;99.90;;;;;;5122593;27;20280;-81
2022/06/15 11:51:00;;;;;;;10.70;10.40;;;33.00;99.70;;;;;;5130497;27;20319;-81
2022/06/15 11:53:44;;;;;;;10.50;10.20;;;32.80;99.90;;;;;;5122194;27;20723;-81
2022/06/15 11:56:26;;;;;;;10.63;10.32;;;32.80;99.90;;;;;;5131450;27;20274;-81
2022/06/15 11:59:03;;;;;;;10.90;10.60;;;32.90;99.90;;;;;;5125630;27;20229;-81
2022/06/15 12:05:16;;;;;;;11.30;11.00;;;33.60;98.70;;;;;;5118530;28;20311;-81
2022/06/15 12:24:53;;;;;;;11.65;11.25;;;33.00;95.40;;;;;;5095359;28;20283;-81
2022/06/15 12:31:58;;;;;;;11.30;11.00;;;33.30;95.20;;;;;;5121641;28;20318;-81
2022/06/15 12:34:51;;;;;;;11.05;10.75;;;32.90;95.90;;;;;;5039387;28;20264;-81
2022/06/15 12:42:09;;;;;;;11.10;10.80;;;32.90;95.40;;;;;;5123919;28;20217;-82
2022/06/15 12:47:18;;;;;;;;;;;;;;;;;;;;;
2022/06/15 13:08:43;;;;;;;10.70;10.40;;;33.60;94.30;;;;;;5081685;28;20237;-82
2022/06/15 13:11:39;;;;;;;10.80;10.50;;;33.90;94.10;;;;;;5082790;28;20242;-82
2022/06/15 13:43:09;;;;;;;11.55;11.25;;;36.40;89.30;;;;;;5150914;27;20216;-81
2022/06/15 13:45:55;;;;;;;11.40;11.10;;;36.10;86.50;;;;;;5149523;27;20225;-81
2022/06/15 14:17:41;;;;;;;11.38;11.07;;;35.70;87.50;;;;;;5085061;28;20218;-83
2022/06/15 14:20:37;;;;;;;11.45;11.15;;;35.50;88.10;;;;;;5066544;28;20310;-85
2022/06/15 14:38:09;;;;;;;11.07;10.77;;;35.50;89.90;;;;;;5058478;28;20219;-85
2022/06/15 14:53:13;;;;;;;11.00;10.70;;;36.60;87.50;;;;;;4970756;22;20276;-86
2022/06/15 14:56:07;;;;;;;11.00;10.70;;;36.60;83.00;;;;;;5020814;28;20262;-86
2022/06/15 14:58:53;;;;;;;11.05;10.75;;;36.90;86.40;;;;;;5022765;28;20720;-79
2022/06/15 15:02:05;;;;;;;10.63;10.32;;;37.00;87.70;;;;;;5023660;28;20255;-83
2022/06/15 15:04:36;;;;;;;10.75;10.45;;;37.00;85.50;;;;;;5023678;28;20724;-87
2022/06/15 15:10:30;;;;;;;10.93;10.63;;;36.90;84.10;;;;;;5002697;28;20225;-81
2022/06/15 15:13:32;;;;;;;10.90;10.60;;;36.40;83.20;;;;;;5016873;28;20295;-84
2022/06/15 15:46:11;;;;;;;11.88;11.48;;;35.70;80.50;;;;;;5086267;28;20225;-85
2022/06/15 15:52:32;;;;;;;10.85;10.55;;;35.70;81.10;;;;;;5158382;27;20228;-86
2022/06/15 15:55:21;;;;;;;11.10;10.80;;;35.90;76.80;;;;;;5172693;27;20227;-85
2022/06/15 15:58:16;;;;;;;11.18;10.88;;;36.00;77.60;;;;;;5173042;27;20238;-85
2022/06/15 16:09:32;;;;;;;11.35;11.05;;;36.90;78.10;;;;;;5173098;27;20214;-86
2022/06/15 16:15:16;;;;;;;11.32;11.02;;;37.10;74.70;;;;;;5166431;27;20219;-86
2022/06/15 16:20:50;;;;;;;11.25;10.95;;;36.40;69.90;;;;;;5163927;27;20219;-86
2022/06/15 16:23:40;;;;;;;10.63;10.32;;;36.30;74.10;;;;;;5163057;27;20324;-86
2022/06/15 16:42:50;;;;;;;11.18;10.88;;;36.90;69.90;;;;;;4658142;27;15065975;-86
2022/06/15 16:45:28;;;;;;;11.10;10.80;;;37.00;72.10;;;;;;5180132;27;20210;-86
2022/06/15 16:48:13;;;;;;;11.13;10.82;;;37.20;73.10;;;;;;5180992;27;20254;-86
2022/06/15 16:50:52;;;;;;;10.95;10.65;;;37.40;71.30;;;;;;5179655;27;20290;-86
2022/06/15 16:53:31;;;;;;;10.68;10.38;;;37.60;71.80;;;;;;5180739;27;20316;-86
2022/06/15 16:56:10;;;;;;;11.30;11.00;;;37.70;71.00;;;;;;5179405;27;20215;-86
2022/06/15 16:58:47;;;;;;;11.35;11.05;;;37.80;70.20;;;;;;5179096;27;20232;-86
2022/06/15 17:01:25;;;;;;;11.35;11.05;;;38.00;68.90;;;;;;5180110;27;20226;-86
2022/06/15 17:04:02;;;;;;;11.07;10.77;;;38.00;70.50;;;;;;5180306;27;20226;-86
2022/06/15 17:06:42;;;;;;;11.10;10.80;;;38.20;71.60;;;;;;5178672;27;20215;-86
2022/06/15 17:09:13;;;;;;;11.00;10.70;;;38.50;70.20;;;;;;5181288;27;20222;-86
2022/06/15 17:11:50;;;;;;;11.02;10.73;;;38.50;68.50;;;;;;5179513;27;20242;-86
2022/06/15 17:20:44;;;;;;;11.18;10.88;;;38.60;65.40;;;;;;5180362;27;20225;-86
2022/06/15 17:23:40;;;;;;;11.10;10.80;;;38.50;64.80;;;;;;5206880;22;20253;-88
2022/06/15 17:29:08;;;;;;;11.38;11.07;;;38.60;65.00;;;;;;5094654;28;20217;-89
2022/06/15 17:32:00;;;;;;;11.13;10.82;;;38.60;66.70;;;;;;5097546;28;20236;-89